LFBA/AGF METAR and TAF weather

Enter ICAO airport designator
Station Type Date Time Source
LFBA METAR 2022/01/28 00:00 UTC NOAA

LFBA 280000Z AUTO VRB03KT 0600 0550 R29/0650N FZFG VV/// M01/M01 Q1035


Station Type Date Time Source
LFBA Decoded METAR 2022/01/28 00:00 UTC NOAA

Agen, France (LFBA) 44-11N 000-36E 60M
Jan 27, 2022 - 07:00 PM EST / 2022.01.28 0000 UTC
Wind: Variable at 3 MPH (3 KT):0
Visibility: less than 1 mile:0
Sky conditions: obscured
Weather: freezing fog
Temperature: 30 F (-1 C)
Dew Point: 30 F (-1 C)
Relative Humidity: 100%
Pressure (altimeter): 30.56 in. Hg (1035 hPa)
ob: LFBA 280000Z AUTO VRB03KT 0600 0550 R29/0650N FZFG VV/// M01/M01 Q1035
cycle: 0

Station Type Date Time Source
LFBA TAF 2014/12/22 20:03 UTC NOAA

TAF
AMD TAF
AMD LFBA 222037Z 2220/2224 12007KT 0400 FG VV///
TEMPO 2220/2224 0100 PROB30
TEMPO 2222/2224 FZFG

Example: see airport list